Time;durP1;ratioP1;P1;durP2;ratioP2;P2;SDS_P1;SDS_P2;PMS_P1;PMS_P2;Temp;Humidity;BMP_temperature;BMP_pressure;BME280_temperature;BME280_humidity;BME280_pressure;Samples;Min_cycle;Max_cycle;Signal;HPM_P1;HPM_P2
2023/05/28 00:00:13;;;;;;;10.82;5.00;;;;;14.90;98815.00;;;;5054725;28;20049;-60
2023/05/28 00:02:44;;;;;;;9.82;4.97;;;;;14.80;98816.00;;;;5054733;28;20549;-60
2023/05/28 00:05:11;;;;;;;10.82;4.85;;;;;14.70;98819.00;;;;5054464;28;20041;-60
2023/05/28 00:07:39;;;;;;;8.50;4.50;;;;;14.70;98811.00;;;;5054264;28;20037;-61
2023/05/28 00:10:06;;;;;;;10.95;5.05;;;;;14.60;98811.00;;;;5054364;28;20041;-61
2023/05/28 00:12:33;;;;;;;13.13;4.85;;;;;14.60;98815.00;;;;5054489;28;20041;-61
2023/05/28 00:14:59;;;;;;;9.20;5.00;;;;;14.60;98820.00;;;;5053289;28;20051;-61
2023/05/28 00:17:26;;;;;;;11.40;5.05;;;;;14.70;98821.00;;;;5054282;28;20094;-60
2023/05/28 00:19:53;;;;;;;10.88;4.47;;;;;14.60;98814.00;;;;5054101;28;20045;-61
2023/05/28 00:22:20;;;;;;;11.18;4.88;;;;;14.60;98819.00;;;;5054161;28;20044;-61
2023/05/28 00:24:46;;;;;;;7.38;4.35;;;;;14.60;98816.00;;;;5053907;28;20045;-61
2023/05/28 00:27:13;;;;;;;13.55;4.75;;;;;14.50;98807.00;;;;5053916;28;20493;-61
2023/05/28 00:29:40;;;;;;;7.43;4.45;;;;;14.50;98818.00;;;;5052305;28;20041;-61
2023/05/28 00:32:07;;;;;;;7.60;4.70;;;;;14.40;98804.00;;;;5052840;28;20091;-61
2023/05/28 00:34:33;;;;;;;11.27;5.05;;;;;14.50;98813.00;;;;5052855;28;20048;-61
2023/05/28 00:37:00;;;;;;;10.63;5.57;;;;;14.50;98802.00;;;;5053824;28;20065;-61
2023/05/28 00:39:28;;;;;;;9.25;5.47;;;;;14.40;98802.00;;;;5053830;28;20041;-60
2023/05/28 00:42:07;;;;;;;10.77;5.90;;;;;14.30;98794.00;;;;5053989;28;20048;-60
2023/05/28 00:44:34;;;;;;;10.15;5.15;;;;;14.20;98797.00;;;;5054095;28;20482;-61
2023/05/28 00:47:02;;;;;;;9.32;5.25;;;;;14.20;98795.00;;;;5054099;28;20045;-60
2023/05/28 00:49:29;;;;;;;9.10;4.90;;;;;14.20;98787.00;;;;5055447;28;20069;-60
2023/05/28 00:51:57;;;;;;;9.80;5.03;;;;;14.20;98786.00;;;;5055169;28;20405;-60
2023/05/28 00:54:24;;;;;;;7.28;4.50;;;;;14.20;98784.00;;;;5054214;28;20049;-60
2023/05/28 00:56:54;;;;;;;9.30;5.28;;;;;14.30;98788.00;;;;5053872;28;20076;-61
2023/05/28 00:59:21;;;;;;;10.55;5.65;;;;;14.20;98801.00;;;;5053866;28;20682;-60
2023/05/28 01:01:48;;;;;;;8.70;5.65;;;;;14.10;98793.00;;;;5064609;28;20180;-61
2023/05/28 01:04:15;;;;;;;10.35;5.72;;;;;14.00;98792.00;;;;5059526;28;20049;-61
2023/05/28 01:06:45;;;;;;;10.35;4.97;;;;;14.00;98787.00;;;;5055540;28;20041;-61
2023/05/28 01:09:12;;;;;;;11.00;4.53;;;;;13.90;98788.00;;;;5051925;28;20135;-61
2023/05/28 01:11:42;;;;;;;7.60;4.78;;;;;13.80;98785.00;;;;5052187;28;20045;-61
2023/05/28 01:14:10;;;;;;;12.73;5.10;;;;;13.80;98779.00;;;;5053433;28;20091;-61
2023/05/28 01:16:37;;;;;;;10.05;5.22;;;;;13.70;98782.00;;;;5053102;28;20041;-62
2023/05/28 01:19:08;;;;;;;7.78;4.93;;;;;13.60;98785.00;;;;5052981;28;20047;-62
2023/05/28 01:21:41;;;;;;;10.07;4.70;;;;;13.50;98783.00;;;;5051801;28;20049;-62
2023/05/28 01:24:09;;;;;;;10.77;5.25;;;;;13.50;98777.00;;;;5051778;28;20549;-62
2023/05/28 01:26:37;;;;;;;8.57;4.28;;;;;13.50;98786.00;;;;5051615;28;20057;-62
2023/05/28 01:29:16;;;;;;;7.70;4.53;;;;;13.50;98782.00;;;;5052792;28;20069;-62
2023/05/28 01:31:44;;;;;;;9.77;5.10;;;;;13.60;98778.00;;;;5051518;28;20049;-61
2023/05/28 01:34:12;;;;;;;12.60;4.95;;;;;13.50;98773.00;;;;5052844;28;20041;-62
2023/05/28 01:36:47;;;;;;;9.27;5.63;;;;;13.40;98773.00;;;;5052722;28;20053;-62
2023/05/28 01:39:16;;;;;;;9.70;4.93;;;;;13.30;98772.00;;;;5051224;28;20045;-62
2023/05/28 01:41:45;;;;;;;7.88;4.65;;;;;13.40;98760.00;;;;5052644;28;20124;-61
2023/05/28 01:44:15;;;;;;;9.35;5.22;;;;;13.50;98764.00;;;;5051474;28;20048;-62
2023/05/28 01:46:45;;;;;;;8.27;4.90;;;;;13.50;98769.00;;;;5052742;28;20536;-62
2023/05/28 01:49:12;;;;;;;9.50;5.18;;;;;13.40;98763.00;;;;5052458;28;20045;-62
2023/05/28 01:51:39;;;;;;;8.85;4.82;;;;;13.40;98763.00;;;;5034505;28;20044;-62
2023/05/28 01:54:06;;;;;;;8.80;5.13;;;;;13.40;98767.00;;;;5052729;28;20410;-62
2023/05/28 01:56:33;;;;;;;8.05;5.15;;;;;13.30;98766.00;;;;5052327;28;20574;-61
2023/05/28 01:59:00;;;;;;;9.43;5.28;;;;;13.20;98764.00;;;;5051083;28;20048;-62
2023/05/28 02:01:29;;;;;;;10.77;5.75;;;;;13.10;98770.00;;;;5050725;28;20114;-61
2023/05/28 02:03:59;;;;;;;11.32;5.70;;;;;13.10;98768.00;;;;5051033;28;20045;-62
2023/05/28 02:06:28;;;;;;;11.93;5.40;;;;;13.00;98767.00;;;;5050795;28;20052;-61
2023/05/28 02:08:56;;;;;;;8.73;4.95;;;;;13.00;98764.00;;;;5050894;28;20051;-62
2023/05/28 02:11:23;;;;;;;7.40;4.90;;;;;13.00;98764.00;;;;5050890;28;20048;-62
2023/05/28 02:13:52;;;;;;;7.43;5.35;;;;;12.90;98761.00;;;;5051137;28;20477;-62
2023/05/28 02:16:19;;;;;;;9.50;5.22;;;;;13.00;98755.00;;;;5050961;28;20099;-62
2023/05/28 02:18:47;;;;;;;11.18;5.45;;;;;13.00;98760.00;;;;5051041;28;20044;-62
2023/05/28 02:21:14;;;;;;;8.95;5.35;;;;;12.90;98761.00;;;;5051015;28;20453;-62
2023/05/28 02:23:46;;;;;;;12.45;5.45;;;;;12.80;98758.00;;;;5052165;28;20045;-62
2023/05/28 02:26:15;;;;;;;8.90;4.97;;;;;12.70;98764.00;;;;5052439;28;20091;-62
2023/05/28 02:28:45;;;;;;;11.70;5.32;;;;;12.70;98759.00;;;;5050731;28;20135;-60
2023/05/28 02:31:14;;;;;;;10.65;5.40;;;;;12.60;98763.00;;;;5050726;28;20131;-61
2023/05/28 02:33:45;;;;;;;7.80;4.95;;;;;12.60;98756.00;;;;5051239;28;20045;-62
2023/05/28 02:36:13;;;;;;;8.77;5.50;;;;;12.60;98756.00;;;;5052061;28;20056;-62
2023/05/28 02:38:41;;;;;;;8.73;5.55;;;;;12.50;98753.00;;;;5052194;28;20068;-61
2023/05/28 02:41:09;;;;;;;8.07;5.22;;;;;12.50;98750.00;;;;5050687;28;20049;-62
2023/05/28 02:43:40;;;;;;;9.20;4.93;;;;;12.40;98744.00;;;;5050906;28;20079;-61
2023/05/28 02:46:08;;;;;;;9.18;5.07;;;;;12.50;98740.00;;;;5050888;28;20045;-61
2023/05/28 02:48:36;;;;;;;12.35;5.30;;;;;12.50;98740.00;;;;5050710;28;20095;-62
2023/05/28 02:51:04;;;;;;;11.13;4.80;;;;;12.50;98747.00;;;;5050714;28;20045;-62
2023/05/28 02:53:47;;;;;;;8.70;4.85;;;;;12.40;98743.00;;;;5050578;28;20565;-62
2023/05/28 02:56:14;;;;;;;6.43;4.75;;;;;12.40;98736.00;;;;5050395;28;20139;-62
2023/05/28 02:58:43;;;;;;;8.85;4.90;;;;;12.30;98743.00;;;;5050536;28;20045;-62
2023/05/28 03:01:10;;;;;;;7.15;4.72;;;;;12.20;98748.00;;;;5050390;28;20413;-62
2023/05/28 03:03:37;;;;;;;9.35;5.55;;;;;12.20;98746.00;;;;5050969;28;20075;-62
2023/05/28 03:06:04;;;;;;;8.50;4.88;;;;;12.20;98750.00;;;;5052209;28;20080;-62
2023/05/28 03:08:37;;;;;;;10.43;4.88;;;;;12.10;98743.00;;;;5050874;28;20444;-62
2023/05/28 03:11:03;;;;;;;11.13;5.40;;;;;12.20;98745.00;;;;5050155;28;20040;-61
2023/05/28 03:13:30;;;;;;;9.80;4.97;;;;;12.20;98749.00;;;;5052578;28;20049;-61
2023/05/28 03:15:58;;;;;;;11.20;5.35;;;;;12.30;98746.00;;;;5054334;28;20095;-60
2023/05/28 03:18:26;;;;;;;10.68;5.13;;;;;12.40;98762.00;;;;5054147;28;20041;-62
2023/05/28 03:20:53;;;;;;;12.30;5.47;;;;;12.40;98741.00;;;;5053816;28;20071;-62
2023/05/28 03:23:20;;;;;;;11.68;5.80;;;;;12.40;98746.00;;;;5054196;28;20052;-62
2023/05/28 03:26:25;;;;;;;8.82;4.97;;;;;12.40;98748.00;;;;5053151;28;20068;-62
2023/05/28 03:28:52;;;;;;;9.73;5.15;;;;;12.20;98747.00;;;;5035992;28;20212;-61
2023/05/28 03:31:29;;;;;;;8.63;5.15;;;;;12.20;98754.00;;;;5044239;28;20387;-63
2023/05/28 03:33:58;;;;;;;7.15;4.90;;;;;12.10;98750.00;;;;5054312;28;20410;-63
2023/05/28 03:36:24;;;;;;;13.32;5.40;;;;;12.00;98756.00;;;;5055307;28;20076;-63
2023/05/28 03:38:51;;;;;;;8.85;5.57;;;;;11.90;98753.00;;;;5053714;28;20045;-60
2023/05/28 03:41:18;;;;;;;10.10;5.88;;;;;11.70;98749.00;;;;5054005;28;20417;-63
2023/05/28 03:43:44;;;;;;;11.65;5.47;;;;;11.70;98749.00;;;;5053868;28;20045;-62
2023/05/28 03:46:11;;;;;;;8.35;5.13;;;;;11.70;98738.00;;;;5053517;28;20059;-63
2023/05/28 03:48:38;;;;;;;7.90;4.60;;;;;11.70;98739.00;;;;5053780;28;20045;-63
2023/05/28 03:51:06;;;;;;;8.77;4.80;;;;;11.70;98754.00;;;;5053537;28;20103;-63
2023/05/28 03:53:33;;;;;;;9.93;5.30;;;;;11.70;98744.00;;;;5053913;28;20052;-62
2023/05/28 03:56:01;;;;;;;11.00;5.30;;;;;11.80;98744.00;;;;5053542;28;20131;-62
2023/05/28 03:58:29;;;;;;;9.90;5.40;;;;;11.90;98747.00;;;;5053650;28;20144;-63
2023/05/28 04:00:56;;;;;;;8.80;5.25;;;;;12.00;98750.00;;;;5053355;28;20060;-63
2023/05/28 04:03:23;;;;;;;9.23;5.93;;;;;11.90;98743.00;;;;5053433;28;20122;-62
2023/05/28 04:05:50;;;;;;;9.50;4.95;;;;;12.00;98744.00;;;;5053223;28;20114;-63
2023/05/28 04:08:17;;;;;;;12.85;5.05;;;;;12.00;98745.00;;;;5054461;28;20041;-63
2023/05/28 04:10:44;;;;;;;10.10;5.20;;;;;12.10;98744.00;;;;5052764;28;20053;-63
2023/05/28 04:13:10;;;;;;;8.80;4.78;;;;;12.00;98743.00;;;;5053175;28;20048;-62
2023/05/28 04:15:37;;;;;;;8.73;4.75;;;;;12.20;98751.00;;;;5053082;28;20135;-61
2023/05/28 04:18:05;;;;;;;12.10;4.90;;;;;12.20;98749.00;;;;5052946;28;20136;-62
2023/05/28 04:20:32;;;;;;;9.70;5.53;;;;;12.20;98744.00;;;;5054042;28;20480;-62
2023/05/28 04:22:59;;;;;;;9.75;4.85;;;;;12.30;98752.00;;;;5053087;28;20045;-60
2023/05/28 04:25:26;;;;;;;11.93;5.47;;;;;12.30;98751.00;;;;5051981;28;20063;-60
2023/05/28 04:27:53;;;;;;;9.65;4.90;;;;;12.40;98746.00;;;;5052801;28;20065;-62
2023/05/28 04:30:22;;;;;;;8.05;5.28;;;;;12.40;98747.00;;;;5052547;28;20049;-60
2023/05/28 04:32:53;;;;;;;8.80;5.03;;;;;12.50;98751.00;;;;5054163;28;20055;-61
2023/05/28 04:35:21;;;;;;;12.02;5.13;;;;;12.60;98754.00;;;;5054129;28;20049;-60
2023/05/28 04:37:50;;;;;;;11.40;5.40;;;;;12.60;98744.00;;;;5036252;28;20049;-61
2023/05/28 04:40:18;;;;;;;9.18;5.25;;;;;12.80;98753.00;;;;5052609;28;20131;-62
2023/05/28 04:42:47;;;;;;;9.15;5.40;;;;;12.80;98760.00;;;;5052608;28;20045;-61
2023/05/28 04:45:14;;;;;;;8.73;5.22;;;;;12.70;98758.00;;;;5052610;28;20148;-61
2023/05/28 04:47:43;;;;;;;10.38;5.40;;;;;12.70;98759.00;;;;5052901;28;20045;-62
2023/05/28 04:50:10;;;;;;;12.45;6.03;;;;;12.80;98759.00;;;;5053704;28;20041;-60
2023/05/28 04:52:37;;;;;;;11.93;4.93;;;;;12.80;98765.00;;;;5052590;28;20045;-62
2023/05/28 04:55:05;;;;;;;10.25;5.28;;;;;13.00;98770.00;;;;5052332;28;20044;-62
2023/05/28 04:57:32;;;;;;;7.60;4.88;;;;;13.10;98779.00;;;;5052770;28;20245;-60
2023/05/28 05:00:00;;;;;;;9.68;5.55;;;;;13.10;98779.00;;;;5052231;28;20041;-59
2023/05/28 05:02:28;;;;;;;11.60;5.60;;;;;13.20;98776.00;;;;5052665;28;20418;-61
2023/05/28 05:04:56;;;;;;;12.23;5.95;;;;;13.30;98778.00;;;;5053711;28;20079;-60
2023/05/28 05:07:23;;;;;;;9.02;4.72;;;;;13.40;98781.00;;;;5055800;28;20045;-62
2023/05/28 05:09:50;;;;;;;8.35;4.82;;;;;13.50;98777.00;;;;5054169;28;20075;-62
2023/05/28 05:12:17;;;;;;;8.40;4.97;;;;;13.60;98784.00;;;;5054172;28;20398;-59
2023/05/28 05:14:43;;;;;;;11.98;5.05;;;;;13.50;98783.00;;;;5051742;28;20053;-60
2023/05/28 05:17:10;;;;;;;9.73;5.20;;;;;13.60;98787.00;;;;5052055;28;20136;-60
2023/05/28 05:19:37;;;;;;;9.38;5.43;;;;;13.70;98784.00;;;;5051919;28;20048;-61
2023/05/28 05:22:04;;;;;;;8.90;5.45;;;;;13.70;98779.00;;;;5053269;28;20095;-60
2023/05/28 05:24:31;;;;;;;11.07;5.40;;;;;13.70;98778.00;;;;5051931;28;20087;-63
2023/05/28 05:26:58;;;;;;;11.40;5.60;;;;;13.60;98779.00;;;;5052047;28;20065;-61
2023/05/28 05:29:25;;;;;;;11.18;5.90;;;;;13.70;98780.00;;;;5051433;28;20041;-61
2023/05/28 05:31:51;;;;;;;12.05;5.15;;;;;13.90;98777.00;;;;5052044;28;20761;-59
2023/05/28 05:34:18;;;;;;;13.15;5.65;;;;;14.20;98792.00;;;;5051632;28;20053;-60
2023/05/28 05:37:21;;;;;;;9.82;6.53;;;;;14.50;98787.00;;;;5049668;28;20056;-61
2023/05/28 05:40:08;;;;;;;9.40;5.15;;;;;14.60;98791.00;;;;5052823;28;20133;-61
2023/05/28 05:42:58;;;;;;;8.52;5.32;;;;;14.70;98787.00;;;;5052812;28;20044;-62
2023/05/28 05:45:25;;;;;;;10.57;5.10;;;;;14.80;98786.00;;;;5051374;28;20040;-60
2023/05/28 05:47:53;;;;;;;11.95;6.15;;;;;15.00;98783.00;;;;5051598;28;20087;-60
2023/05/28 05:50:20;;;;;;;9.55;6.07;;;;;15.00;98777.00;;;;5051608;28;20048;-64
2023/05/28 05:52:47;;;;;;;10.38;6.55;;;;;15.00;98783.00;;;;5051134;28;20041;-61
2023/05/28 05:55:14;;;;;;;11.00;6.20;;;;;15.10;98784.00;;;;5035052;28;20075;-62
2023/05/28 05:57:43;;;;;;;9.70;5.75;;;;;15.20;98777.00;;;;5053034;28;20426;-61
2023/05/28 06:00:11;;;;;;;10.85;6.53;;;;;15.30;98779.00;;;;5052353;28;20437;-59
2023/05/28 06:02:44;;;;;;;8.70;5.47;;;;;15.20;98788.00;;;;5051670;28;20045;-61
2023/05/28 06:05:29;;;;;;;9.27;6.47;;;;;15.20;98777.00;;;;5052773;28;20202;-61
2023/05/28 06:08:23;;;;;;;9.57;6.18;;;;;15.50;98783.00;;;;5051306;28;20053;-61
2023/05/28 06:10:59;;;;;;;14.25;5.63;;;;;15.70;98783.00;;;;5051363;28;20137;-59
2023/05/28 06:13:26;;;;;;;7.90;5.53;;;;;15.90;98781.00;;;;5051273;28;20506;-62
2023/05/28 06:15:54;;;;;;;11.40;7.00;;;;;16.00;98784.00;;;;5052658;28;20048;-62
2023/05/28 06:18:21;;;;;;;17.27;10.70;;;;;16.10;98784.00;;;;5051466;28;20049;-63
2023/05/28 06:20:51;;;;;;;10.20;6.03;;;;;16.20;98776.00;;;;5051207;28;20049;-63
2023/05/28 06:23:18;;;;;;;9.40;6.15;;;;;16.20;98787.00;;;;5051841;28;20048;-62
2023/05/28 06:25:45;;;;;;;12.43;5.40;;;;;16.20;98785.00;;;;5059099;28;20055;-62
2023/05/28 06:28:11;;;;;;;14.18;5.90;;;;;16.20;98782.00;;;;5069019;28;20059;-61
2023/05/28 06:30:39;;;;;;;13.35;5.80;;;;;16.20;98791.00;;;;5068319;28;20055;-62
2023/05/28 06:33:07;;;;;;;10.90;5.18;;;;;16.30;98784.00;;;;5068646;28;20041;-61
2023/05/28 06:35:35;;;;;;;11.05;6.05;;;;;16.40;98786.00;;;;5068840;28;20057;-62
2023/05/28 06:38:01;;;;;;;11.43;6.00;;;;;16.50;98782.00;;;;5069412;28;20113;-61
2023/05/28 06:40:28;;;;;;;9.48;5.78;;;;;16.60;98784.00;;;;5070394;28;20040;-61
2023/05/28 06:42:55;;;;;;;9.70;6.05;;;;;16.70;98796.00;;;;5069984;28;20048;-61
2023/05/28 06:45:51;;;;;;;10.80;5.55;;;;;16.80;98793.00;;;;5071035;28;20053;-61
2023/05/28 06:48:17;;;;;;;12.40;4.97;;;;;16.80;98792.00;;;;5068122;28;20100;-61
2023/05/28 06:50:44;;;;;;;9.50;5.35;;;;;16.80;98795.00;;;;5068132;28;20049;-61
2023/05/28 06:53:11;;;;;;;10.63;6.60;;;;;17.00;98794.00;;;;5070521;28;20456;-62
2023/05/28 06:55:38;;;;;;;8.48;5.25;;;;;17.10;98803.00;;;;5069393;28;20056;-62
2023/05/28 06:58:36;;;;;;;11.77;6.70;;;;;17.20;98802.00;;;;5070025;28;20088;-61
2023/05/28 07:01:04;;;;;;;10.70;5.20;;;;;17.30;98799.00;;;;5069503;28;20116;-62
2023/05/28 07:03:45;;;;;;;6.50;4.82;;;;;17.30;98797.00;;;;5050154;28;20112;-62
2023/05/28 07:06:18;;;;;;;10.15;5.82;;;;;17.40;98802.00;;;;5057316;28;20044;-64
2023/05/28 07:08:46;;;;;;;10.18;4.80;;;;;17.50;98799.00;;;;5055770;28;20045;-61
2023/05/28 07:11:14;;;;;;;9.15;4.95;;;;;17.50;98803.00;;;;5056516;28;20041;-62
2023/05/28 07:13:45;;;;;;;9.88;4.93;;;;;17.60;98801.00;;;;5056187;28;20088;-62
2023/05/28 07:16:11;;;;;;;8.85;4.70;;;;;17.80;98804.00;;;;5056699;28;20071;-62
2023/05/28 07:18:39;;;;;;;8.20;5.15;;;;;18.00;98800.00;;;;5055604;28;20045;-61
2023/05/28 07:21:05;;;;;;;6.90;4.90;;;;;18.10;98805.00;;;;5056651;28;20033;-62
2023/05/28 07:23:38;;;;;;;11.90;5.03;;;;;18.30;98796.00;;;;5039830;28;20049;-62
2023/05/28 07:26:05;;;;;;;21.60;12.13;;;;;18.40;98800.00;;;;5055245;28;20045;-62
2023/05/28 07:28:32;;;;;;;14.85;8.65;;;;;18.50;98813.00;;;;5056649;28;20413;-63
2023/05/28 07:30:58;;;;;;;8.77;4.95;;;;;18.60;98808.00;;;;5054580;28;20076;-64
2023/05/28 07:33:25;;;;;;;8.75;4.82;;;;;18.70;98818.00;;;;5056843;28;20053;-63
2023/05/28 07:35:52;;;;;;;9.90;5.03;;;;;18.80;98808.00;;;;5060540;28;20084;-64
2023/05/28 07:38:19;;;;;;;8.50;4.38;;;;;19.00;98811.00;;;;5058989;28;20063;-64
2023/05/28 07:40:49;;;;;;;7.10;3.80;;;;;19.10;98815.00;;;;5061036;28;20041;-64
2023/05/28 07:43:30;;;;;;;8.65;4.47;;;;;19.10;98810.00;;;;5059908;28;20049;-62
2023/05/28 07:46:02;;;;;;;9.18;3.65;;;;;19.20;98808.00;;;;5057798;28;20045;-63
2023/05/28 07:48:36;;;;;;;8.18;4.15;;;;;19.30;98796.00;;;;5056054;28;20075;-63
2023/05/28 07:51:17;;;;;;;12.55;4.20;;;;;19.50;98803.00;;;;5057140;28;20079;-65
2023/05/28 07:53:48;;;;;;;8.10;4.05;;;;;19.60;98800.00;;;;5055518;28;20057;-63
2023/05/28 07:56:20;;;;;;;9.60;4.25;;;;;19.60;98800.00;;;;5056075;28;20510;-63
2023/05/28 07:58:48;;;;;;;9.25;3.70;;;;;19.70;98805.00;;;;5055837;28;20041;-66
2023/05/28 08:01:17;;;;;;;9.35;3.83;;;;;19.70;98801.00;;;;5038658;28;20102;-62
2023/05/28 08:03:48;;;;;;;6.95;3.80;;;;;19.70;98802.00;;;;5058113;28;20059;-63
2023/05/28 08:06:18;;;;;;;6.10;3.63;;;;;19.90;98800.00;;;;5059094;28;20045;-64
2023/05/28 08:08:45;;;;;;;7.55;4.38;;;;;20.10;98799.00;;;;5058620;28;20045;-64
2023/05/28 08:11:13;;;;;;;8.43;3.90;;;;;20.30;98786.00;;;;5058105;28;20094;-63
2023/05/28 08:13:41;;;;;;;14.50;4.72;;;;;20.40;98796.00;;;;5056784;28;20449;-64
2023/05/28 08:16:12;;;;;;;6.80;3.83;;;;;20.40;98796.00;;;;5054737;28;20102;-63
2023/05/28 08:18:58;;;;;;;8.07;4.38;;;;;20.50;98794.00;;;;5054131;28;20045;-65
2023/05/28 08:21:26;;;;;;;5.68;3.33;;;;;20.50;98779.00;;;;5053666;28;20448;-63
2023/05/28 08:23:54;;;;;;;7.10;4.10;;;;;20.60;98785.00;;;;5053679;28;20049;-63
2023/05/28 08:26:21;;;;;;;7.15;3.72;;;;;20.80;98792.00;;;;5053862;28;20051;-63
2023/05/28 08:28:48;;;;;;;6.93;3.58;;;;;21.00;98791.00;;;;5037922;28;20049;-65
2023/05/28 08:31:15;;;;;;;6.60;3.15;;;;;21.10;98779.00;;;;5054315;28;20073;-65
2023/05/28 08:34:00;;;;;;;9.00;3.95;;;;;21.20;98779.00;;;;5056245;28;20052;-65
2023/05/28 08:36:27;;;;;;;5.88;3.80;;;;;21.30;98778.00;;;;5054531;28;20045;-63
2023/05/28 08:38:55;;;;;;;12.15;6.40;;;;;21.40;98763.00;;;;5054214;28;20502;-63
2023/05/28 08:41:23;;;;;;;6.55;4.07;;;;;21.40;98768.00;;;;5056797;28;20049;-63
2023/05/28 08:43:51;;;;;;;7.80;4.75;;;;;21.40;98766.00;;;;5038701;28;20052;-63
2023/05/28 08:46:18;;;;;;;7.22;4.03;;;;;21.50;98767.00;;;;5054993;28;20116;-63
2023/05/28 08:49:12;;;;;;;7.85;4.03;;;;;21.60;98763.00;;;;5054374;28;20052;-63
2023/05/28 08:51:41;;;;;;;7.57;3.47;;;;;21.60;98766.00;;;;5054058;28;20079;-64
2023/05/28 08:54:08;;;;;;;6.82;3.92;;;;;21.80;98758.00;;;;5053966;28;20064;-64
2023/05/28 08:56:35;;;;;;;6.70;3.25;;;;;21.90;98750.00;;;;5055445;28;20103;-64
2023/05/28 08:59:03;;;;;;;8.50;4.07;;;;;21.90;98757.00;;;;5055156;28;20052;-64
2023/05/28 09:01:33;;;;;;;6.30;3.92;;;;;21.90;98750.00;;;;5056356;28;20059;-65
2023/05/28 09:04:08;;;;;;;7.03;3.85;;;;;22.10;98745.00;;;;5056625;28;20051;-64
2023/05/28 09:06:38;;;;;;;8.35;5.15;;;;;22.20;98755.00;;;;5058199;28;20045;-65
2023/05/28 09:09:11;;;;;;;9.27;5.80;;;;;22.20;98753.00;;;;5058968;28;20077;-64
2023/05/28 09:11:49;;;;;;;8.20;4.60;;;;;22.30;98746.00;;;;5046633;28;20052;-64
2023/05/28 09:14:19;;;;;;;6.00;4.03;;;;;22.50;98744.00;;;;5060552;28;20041;-65
2023/05/28 09:16:48;;;;;;;7.97;4.30;;;;;22.60;98753.00;;;;5059477;28;20053;-67
2023/05/28 09:19:19;;;;;;;6.45;3.55;;;;;22.70;98748.00;;;;5059116;28;20048;-66
2023/05/28 09:21:57;;;;;;;7.55;3.55;;;;;22.80;98744.00;;;;5059488;28;20514;-66
2023/05/28 09:24:33;;;;;;;5.60;3.80;;;;;22.90;98744.00;;;;5058542;28;20613;-66
2023/05/28 09:27:33;;;;;;;10.18;4.15;;;;;22.90;98744.00;;;;5057371;28;20064;-66
2023/05/28 09:30:07;;;;;;;6.68;3.58;;;;;23.10;98744.00;;;;5057456;28;20033;-62
2023/05/28 09:32:35;;;;;;;7.47;3.42;;;;;23.40;98745.00;;;;5059400;28;20065;-64
2023/05/28 09:35:05;;;;;;;6.63;3.45;;;;;23.50;98749.00;;;;5038638;28;20108;-63
2023/05/28 09:37:32;;;;;;;6.10;3.28;;;;;23.30;98744.00;;;;5038844;28;20129;-64
2023/05/28 09:40:04;;;;;;;6.55;3.30;;;;;23.40;98736.00;;;;5039371;28;20049;-63
2023/05/28 09:42:39;;;;;;;5.97;3.58;;;;;23.50;98736.00;;;;5053916;28;20049;-64
2023/05/28 09:45:07;;;;;;;4.60;3.00;;;;;23.60;98732.00;;;;5039207;28;20041;-63
2023/05/28 09:47:42;;;;;;;7.72;3.80;;;;;23.60;98738.00;;;;5038276;28;20045;-64
2023/05/28 09:50:08;;;;;;;6.03;3.38;;;;;23.60;98738.00;;;;5038448;28;20041;-63
2023/05/28 09:52:42;;;;;;;5.55;3.58;;;;;23.80;98729.00;;;;5041759;28;20049;-63
2023/05/28 09:55:13;;;;;;;7.07;3.65;;;;;24.00;98737.00;;;;5038757;28;20491;-64
2023/05/28 09:57:46;;;;;;;6.28;2.83;;;;;24.00;98737.00;;;;5034106;28;20128;-65
2023/05/28 10:00:22;;;;;;;6.40;3.45;;;;;24.00;98729.00;;;;5035973;28;20085;-64
2023/05/28 10:02:58;;;;;;;4.65;3.17;;;;;24.20;98731.00;;;;5018776;28;20049;-64
2023/05/28 10:05:31;;;;;;;8.95;3.83;;;;;24.40;98741.00;;;;5036103;28;20053;-63
2023/05/28 10:08:00;;;;;;;8.85;3.50;;;;;24.50;98738.00;;;;5043110;28;20045;-62
2023/05/28 10:10:30;;;;;;;6.82;3.38;;;;;24.50;98747.00;;;;5038157;28;20177;-65
2023/05/28 10:12:57;;;;;;;7.68;3.55;;;;;24.40;98737.00;;;;5038620;28;20056;-64
2023/05/28 10:15:25;;;;;;;4.88;3.40;;;;;24.40;98741.00;;;;5041029;28;20054;-64
2023/05/28 10:17:52;;;;;;;6.25;3.13;;;;;24.40;98730.00;;;;5038378;28;20045;-63
2023/05/28 10:20:19;;;;;;;5.35;3.60;;;;;24.40;98741.00;;;;5033839;28;20115;-63
2023/05/28 10:22:47;;;;;;;5.68;3.30;;;;;24.50;98736.00;;;;5034801;28;20119;-64
2023/05/28 10:25:14;;;;;;;7.38;3.85;;;;;24.60;98732.00;;;;5034882;28;20490;-64
2023/05/28 10:27:45;;;;;;;4.32;3.00;;;;;24.70;98732.00;;;;5035822;28;20045;-63
2023/05/28 10:30:12;;;;;;;4.22;3.00;;;;;24.70;98731.00;;;;5037761;28;20094;-66
2023/05/28 10:32:43;;;;;;;5.57;3.60;;;;;24.70;98729.00;;;;5035434;28;20045;-64
2023/05/28 10:35:11;;;;;;;7.82;3.20;;;;;24.80;98730.00;;;;5035388;28;20050;-63
2023/05/28 10:37:39;;;;;;;5.47;3.55;;;;;24.80;98738.00;;;;5038614;28;20049;-63
2023/05/28 10:40:10;;;;;;;9.13;3.88;;;;;24.90;98732.00;;;;5035621;28;20100;-63
2023/05/28 10:42:41;;;;;;;6.15;3.58;;;;;24.90;98733.00;;;;5034764;28;20045;-64
2023/05/28 10:45:11;;;;;;;6.68;3.35;;;;;24.90;98739.00;;;;5036295;28;20041;-63
2023/05/28 10:47:40;;;;;;;6.75;3.00;;;;;24.90;98739.00;;;;5034795;28;20053;-63
2023/05/28 10:50:07;;;;;;;5.30;3.53;;;;;24.80;98743.00;;;;5035806;28;20095;-63
2023/05/28 10:53:06;;;;;;;6.95;3.50;;;;;25.00;98732.00;;;;5035677;28;20582;-63
2023/05/28 10:55:49;;;;;;;7.25;3.58;;;;;25.00;98740.00;;;;5034885;28;20053;-63
2023/05/28 10:58:36;;;;;;;4.65;3.55;;;;;25.00;98741.00;;;;5035350;28;20050;-62
2023/05/28 11:01:22;;;;;;;6.38;3.78;;;;;25.00;98733.00;;;;5033999;28;20073;-63
2023/05/28 11:03:54;;;;;;;6.38;3.58;;;;;25.10;98732.00;;;;5040702;28;20041;-64
2023/05/28 11:06:25;;;;;;;9.18;3.50;;;;;25.30;98734.00;;;;5034990;28;20537;-63
2023/05/28 11:08:52;;;;;;;5.43;3.40;;;;;25.30;98724.00;;;;5036673;28;20080;-64
2023/05/28 11:11:19;;;;;;;8.43;3.33;;;;;25.40;98728.00;;;;5034450;28;20037;-63
2023/05/28 11:13:47;;;;;;;10.43;3.60;;;;;25.50;98727.00;;;;5035300;28;20049;-63
2023/05/28 11:16:18;;;;;;;7.50;4.68;;;;;25.60;98723.00;;;;5034973;28;20069;-63
2023/05/28 11:19:05;;;;;;;8.00;3.38;;;;;25.60;98719.00;;;;5034979;28;20111;-63
2023/05/28 11:21:32;;;;;;;7.32;3.35;;;;;25.50;98713.00;;;;5035050;28;20057;-63
2023/05/28 11:24:04;;;;;;;12.82;3.97;;;;;25.50;98714.00;;;;5036024;28;20091;-64
2023/05/28 11:26:32;;;;;;;8.23;3.42;;;;;25.60;98722.00;;;;5033378;28;20051;-62
2023/05/28 11:29:00;;;;;;;5.55;3.38;;;;;25.50;98713.00;;;;5032689;28;20058;-63
2023/05/28 11:31:28;;;;;;;5.32;3.25;;;;;25.60;98714.00;;;;5047367;28;20041;-63
2023/05/28 11:33:55;;;;;;;6.80;3.50;;;;;25.50;98718.00;;;;5031436;28;20503;-63
2023/05/28 11:36:22;;;;;;;6.80;3.03;;;;;25.60;98709.00;;;;5035844;28;20045;-63
2023/05/28 11:39:01;;;;;;;5.38;3.33;;;;;25.70;98714.00;;;;5034671;28;20550;-63
2023/05/28 11:41:29;;;;;;;6.97;3.67;;;;;25.50;98710.00;;;;5051346;28;20041;-64
2023/05/28 11:43:55;;;;;;;6.45;3.20;;;;;25.50;98713.00;;;;5035825;28;20132;-63
2023/05/28 11:46:22;;;;;;;7.15;3.60;;;;;25.60;98707.00;;;;5035601;28;20077;-63
2023/05/28 11:48:50;;;;;;;5.70;3.60;;;;;25.70;98713.00;;;;5035769;28;20052;-65
2023/05/28 11:51:20;;;;;;;4.40;3.00;;;;;25.70;98707.00;;;;5035465;28;20041;-64
2023/05/28 11:53:50;;;;;;;4.50;3.38;;;;;25.70;98708.00;;;;5035744;28;20111;-64
2023/05/28 11:56:16;;;;;;;6.63;3.33;;;;;25.60;98694.00;;;;5035599;28;20057;-63
2023/05/28 11:58:48;;;;;;;4.80;3.30;;;;;25.60;98699.00;;;;5035419;28;20041;-63
2023/05/28 12:01:15;;;;;;;5.28;3.25;;;;;25.70;98708.00;;;;5035657;28;20037;-63
2023/05/28 12:03:43;;;;;;;5.85;2.90;;;;;25.60;98707.00;;;;5035617;28;20050;-63
2023/05/28 12:06:12;;;;;;;5.47;3.90;;;;;25.60;98707.00;;;;5035508;28;20132;-64
2023/05/28 12:08:48;;;;;;;9.18;3.95;;;;;25.70;98707.00;;;;5035481;28;20042;-63
2023/05/28 12:11:15;;;;;;;8.45;3.97;;;;;25.80;98701.00;;;;5035290;28;20048;-64
2023/05/28 12:13:41;;;;;;;6.05;3.22;;;;;25.80;98711.00;;;;5035181;28;20120;-62
2023/05/28 12:16:12;;;;;;;3.85;3.05;;;;;25.80;98700.00;;;;5035213;28;20164;-63
2023/05/28 12:18:42;;;;;;;7.60;4.07;;;;;25.90;98699.00;;;;5035356;28;20103;-65
2023/05/28 12:21:11;;;;;;;5.55;3.67;;;;;25.90;98697.00;;;;5034830;28;20041;-63
2023/05/28 12:23:38;;;;;;;8.10;3.95;;;;;25.90;98698.00;;;;5035310;28;20041;-61
2023/05/28 12:26:09;;;;;;;6.72;3.20;;;;;26.10;98696.00;;;;5035012;28;20042;-64